Time;durP1;ratioP1;P1;durP2;ratioP2;P2;SDS_P1;SDS_P2;PMS_P1;PMS_P2;Temp;Humidity;BMP_temperature;BMP_pressure;BME280_temperature;BME280_humidity;BME280_pressure;Samples;Min_cycle;Max_cycle;Signal;HPM_P1;HPM_P2
2021/07/26 00:01:14;;;;;;;12.48;7.40;;;;;;;26.28;58.35;100163.59;5059758;28;20055;-69
2021/07/26 00:03:59;;;;;;;17.73;8.02;;;;;;;26.27;58.70;100153.66;5057867;28;20044;-69
2021/07/26 00:06:46;;;;;;;13.65;8.85;;;;;;;26.23;58.51;100152.97;5053713;28;20044;-69
2021/07/26 00:09:33;;;;;;;13.93;7.50;;;;;;;26.21;58.29;100140.66;5059283;28;20048;-68
2021/07/26 00:12:18;;;;;;;16.27;7.68;;;;;;;26.32;57.96;100141.19;5057553;28;20052;-68
2021/07/26 00:15:06;;;;;;;16.70;8.00;;;;;;;26.34;57.74;100141.56;5057446;28;20060;-69
2021/07/26 00:17:51;;;;;;;15.40;7.10;;;;;;;26.27;57.57;100134.13;5053350;28;20433;-68
2021/07/26 00:20:36;;;;;;;11.68;7.25;;;;;;;26.19;57.26;100127.16;5054412;28;20048;-68
2021/07/26 00:23:21;;;;;;;12.48;7.70;;;;;;;26.32;57.29;100136.41;5058093;28;20509;-69
2021/07/26 00:26:06;;;;;;;11.05;7.35;;;;;;;26.25;57.36;100135.81;5055759;28;20060;-69
2021/07/26 00:28:53;;;;;;;19.08;7.57;;;;;;;26.10;57.70;100143.72;5053561;28;20047;-69
2021/07/26 00:31:39;;;;;;;11.63;7.18;;;;;;;26.09;57.86;100144.94;5058809;28;20047;-69
2021/07/26 00:34:27;;;;;;;13.18;7.78;;;;;;;26.12;57.63;100134.91;5056326;28;20040;-69
2021/07/26 00:37:12;;;;;;;12.35;7.88;;;;;;;26.19;57.55;100135.53;5053918;28;20111;-70
2021/07/26 00:39:59;;;;;;;12.48;7.68;;;;;;;26.19;57.33;100134.72;5053651;28;20044;-68
2021/07/26 00:42:44;;;;;;;14.65;7.40;;;;;;;26.14;57.93;100136.03;5043396;28;20049;-68
2021/07/26 00:45:29;;;;;;;12.93;6.57;;;;;;;25.98;57.95;100144.38;5055221;28;20052;-69
2021/07/26 00:48:13;;;;;;;13.52;6.88;;;;;;;25.97;58.15;100138.03;5054696;28;20048;-69
2021/07/26 00:50:58;;;;;;;;;;;;;;;26.12;57.93;100129.31;5057069;28;20123;-69
2021/07/26 00:53:43;;;;;;;20.47;7.77;;;;;;;26.05;58.17;100127.50;5060228;28;20378;-69
2021/07/26 00:56:28;;;;;;;12.23;7.32;;;;;;;26.10;58.72;100126.19;5053878;28;20056;-69
2021/07/26 00:59:15;;;;;;;15.02;7.50;;;;;;;25.93;59.14;100128.19;5057359;28;20044;-69
2021/07/26 01:02:00;;;;;;;12.88;8.00;;;;;;;25.92;59.21;100134.97;5054612;28;20067;-69
2021/07/26 01:04:45;;;;;;;22.08;8.43;;;;;;;25.85;59.30;100130.34;5055420;28;20064;-68
2021/07/26 01:07:30;;;;;;;16.05;8.45;;;;;;;25.67;60.01;100123.63;5044728;28;20541;-69
2021/07/26 01:10:15;;;;;;;13.82;8.13;;;;;;;25.67;59.80;100123.63;5057259;28;20048;-68
2021/07/26 01:13:00;;;;;;;16.85;7.07;;;;;;;25.61;59.41;100142.84;5055407;28;20052;-69
2021/07/26 01:15:45;;;;;;;16.10;6.95;;;;;;;25.47;59.44;100154.25;5055275;28;20410;-69
2021/07/26 01:18:37;;;;;;;14.07;7.47;;;;;;;25.36;59.77;100150.91;5054132;28;20414;-69
2021/07/26 01:21:22;;;;;;;12.88;6.88;;;;;;;25.31;59.13;100146.63;5058199;28;20524;-69
2021/07/26 01:24:07;;;;;;;18.08;7.15;;;;;;;25.26;58.96;100155.47;5056398;28;20056;-70
2021/07/26 01:26:52;;;;;;;13.65;6.93;;;;;;;25.28;58.52;100157.84;5053893;28;20406;-70
2021/07/26 01:29:36;;;;;;;15.60;6.32;;;;;;;25.31;57.34;100151.41;5057545;28;20067;-69
2021/07/26 01:32:21;;;;;;;12.32;7.13;;;;;;;25.52;56.58;100162.09;5056982;28;20056;-69
2021/07/26 01:35:07;;;;;;;13.77;6.85;;;;;;;25.34;57.24;100168.06;5057176;28;20056;-68
2021/07/26 01:37:52;;;;;;;12.75;6.85;;;;;;;25.22;57.16;100153.97;5057036;28;20052;-69
2021/07/26 01:40:40;;;;;;;15.68;7.00;;;;;;;25.09;56.89;100168.53;5039539;28;20071;-69
2021/07/26 01:43:31;;;;;;;10.90;7.43;;;;;;;24.96;57.58;100161.25;5058142;28;20048;-68
2021/07/26 01:46:22;;;;;;;23.52;7.32;;;;;;;24.97;57.95;100171.16;5052271;28;20044;-69
2021/07/26 01:49:24;;;;;;;11.13;7.50;;;;;;;25.01;57.85;100166.31;5056077;28;20053;-69
2021/07/26 01:52:09;;;;;;;12.32;7.13;;;;;;;24.95;58.25;100168.81;5053048;28;20071;-68
2021/07/26 01:54:54;;;;;;;11.65;7.75;;;;;;;24.93;58.33;100176.03;5056651;28;20530;-69
2021/07/26 01:57:39;;;;;;;16.23;8.18;;;;;;;25.02;58.71;100179.81;5055712;28;20047;-69
2021/07/26 02:00:25;;;;;;;15.20;8.00;;;;;;;24.99;59.03;100179.88;5053498;28;20048;-68
2021/07/26 02:03:10;;;;;;;15.07;8.35;;;;;;;25.01;59.23;100183.81;5057823;28;20047;-69
2021/07/26 02:05:55;;;;;;;25.00;9.50;;;;;;;24.89;60.21;100181.63;5051916;28;20051;-69
2021/07/26 02:08:39;;;;;;;15.52;8.90;;;;;;;24.79;60.27;100185.38;5056316;28;20047;-69
2021/07/26 02:11:24;;;;;;;22.00;9.88;;;;;;;24.84;60.61;100181.34;5054310;28;20052;-69
2021/07/26 02:14:10;;;;;;;16.50;10.02;;;;;;;24.84;60.96;100184.13;5052855;28;20060;-69
2021/07/26 02:16:54;;;;;;;20.38;9.38;;;;;;;24.68;61.99;100179.22;5055890;28;20037;-70
2021/07/26 02:19:39;;;;;;;17.42;9.23;;;;;;;24.56;62.55;100188.94;5054466;28;20044;-67
2021/07/26 02:22:24;;;;;;;15.23;9.15;;;;;;;24.30;63.21;100175.88;5050531;28;20414;-67
2021/07/26 02:25:10;;;;;;;19.80;9.50;;;;;;;24.25;63.52;100181.91;5055408;28;20048;-68
2021/07/26 02:27:56;;;;;;;16.00;9.43;;;;;;;24.29;63.33;100185.41;5054188;28;20056;-68
2021/07/26 02:30:40;;;;;;;14.05;9.75;;;;;;;24.03;64.94;100175.06;5051992;28;20048;-68
2021/07/26 02:33:25;;;;;;;;;;;;;;;24.26;64.46;100183.50;5052469;28;20070;-67
2021/07/26 02:36:09;;;;;;;23.03;10.10;;;;;;;24.17;64.99;100186.81;5052148;28;19912;-67
2021/07/26 02:38:54;;;;;;;20.63;10.95;;;;;;;24.12;65.67;100190.03;5053648;28;20041;-68
2021/07/26 02:41:43;;;;;;;20.20;10.85;;;;;;;23.99;66.44;100185.44;5037531;28;20045;-67
2021/07/26 02:44:27;;;;;;;21.38;11.45;;;;;;;23.95;67.44;100187.50;5056333;28;20049;-68
2021/07/26 02:47:12;;;;;;;22.25;12.82;;;;;;;23.83;68.01;100186.06;5053603;28;20037;-68
2021/07/26 02:49:57;;;;;;;20.90;11.45;;;;;;;23.92;68.00;100180.81;5053063;28;20145;-68
2021/07/26 02:52:42;;;;;;;26.63;11.70;;;;;;;23.93;68.21;100178.78;5055709;28;20045;-68
2021/07/26 02:55:29;;;;;;;17.17;10.57;;;;;;;24.18;67.11;100173.69;5053960;28;20049;-68
2021/07/26 02:58:14;;;;;;;20.55;9.85;;;;;;;24.23;66.76;100168.44;5053516;28;20037;-67
2021/07/26 03:00:59;;;;;;;21.17;9.95;;;;;;;24.22;67.38;100168.88;5060300;28;20052;-68
2021/07/26 03:03:44;;;;;;;27.83;10.88;;;;;;;24.14;68.00;100164.59;5058267;28;20040;-68
2021/07/26 03:06:29;;;;;;;19.52;11.00;;;;;;;24.23;67.42;100162.09;5055318;28;20049;-67
2021/07/26 03:09:13;;;;;;;26.30;11.02;;;;;;;24.23;67.58;100164.88;5059559;28;20037;-67
2021/07/26 03:11:58;;;;;;;22.80;9.77;;;;;;;24.15;67.88;100163.38;5058357;28;20406;-69
2021/07/26 03:14:43;;;;;;;18.13;9.85;;;;;;;24.07;68.24;100170.28;5057985;28;20051;-68
2021/07/26 03:17:28;;;;;;;19.30;9.98;;;;;;;24.08;67.95;100166.25;5060739;28;20047;-69
2021/07/26 03:20:13;;;;;;;24.33;10.45;;;;;;;23.95;68.65;100159.72;5058534;28;20044;-68
2021/07/26 03:23:07;;;;;;;22.50;10.18;;;;;;;23.89;69.16;100164.97;5057003;28;20037;-69
2021/07/26 03:25:52;;;;;;;20.90;10.02;;;;;;;23.90;68.91;100162.97;5058101;28;20048;-69
2021/07/26 03:28:37;;;;;;;18.25;10.85;;;;;;;23.94;68.80;100177.59;5055076;28;20045;-68
2021/07/26 03:31:22;;;;;;;14.77;9.18;;;;;;;24.34;66.82;100179.38;5039965;28;20041;-69
2021/07/26 03:34:06;;;;;;;13.75;9.65;;;;;;;24.66;65.31;100193.53;5057638;28;20045;-69
2021/07/26 03:36:51;;;;;;;20.95;9.88;;;;;;;24.82;64.40;100200.44;5055542;28;20048;-68
2021/07/26 03:39:35;;;;;;;;;;;;;;;24.83;64.51;100210.34;5060044;28;20056;-68
2021/07/26 03:42:20;;;;;;;16.67;9.80;;;;;;;24.66;65.04;100210.22;5058018;28;19913;-68
2021/07/26 03:45:07;;;;;;;16.30;8.88;;;;;;;24.66;65.01;100226.91;5055477;28;20044;-69
2021/07/26 03:47:54;;;;;;;18.48;9.55;;;;;;;24.78;64.59;100219.19;5059604;28;20052;-69
2021/07/26 03:50:40;;;;;;;89.13;24.13;;;;;;;24.82;64.45;100226.25;5058268;28;20505;-69
2021/07/26 03:53:24;;;;;;;35.67;14.38;;;;;;;24.78;64.64;100244.22;5055711;28;20036;-69
2021/07/26 03:56:09;;;;;;;19.73;9.35;;;;;;;25.22;63.18;100249.41;5055455;28;20041;-70
2021/07/26 03:58:54;;;;;;;21.10;10.20;;;;;;;25.47;61.59;100241.34;5054601;28;20040;-70
2021/07/26 04:01:40;;;;;;;16.63;8.85;;;;;;;25.46;61.13;100242.56;5061511;28;20045;-70
2021/07/26 04:04:25;;;;;;;15.05;8.77;;;;;;;25.37;60.96;100227.66;5040316;28;20057;-70
2021/07/26 04:07:18;;;;;;;18.77;8.77;;;;;;;25.31;60.96;100224.56;5055309;28;20569;-70
2021/07/26 04:10:07;;;;;;;12.25;8.13;;;;;;;25.22;61.19;100227.13;5041517;28;20493;-70
2021/07/26 04:12:53;;;;;;;15.88;8.25;;;;;;;24.92;61.25;100241.22;5046140;28;20517;-70
2021/07/26 04:15:39;;;;;;;13.32;8.23;;;;;;;24.86;62.47;100251.22;5050177;28;20048;-70
2021/07/26 04:18:25;;;;;;;10.98;8.23;;;;;;;25.13;60.85;100251.97;5044257;28;20506;-70
2021/07/26 04:21:10;;;;;;;15.80;7.85;;;;;;;24.88;62.03;100257.19;5046975;28;20485;-70
2021/07/26 04:23:57;;;;;;;10.88;7.57;;;;;;;25.01;61.91;100256.16;5048746;28;20060;-70
2021/07/26 04:26:44;;;;;;;13.38;7.65;;;;;;;24.73;62.81;100261.38;5050402;28;20044;-70
2021/07/26 04:29:28;;;;;;;19.90;8.75;;;;;;;24.69;63.21;100259.44;5049970;28;20432;-70
2021/07/26 04:32:13;;;;;;;19.85;7.53;;;;;;;25.06;61.80;100268.78;5051853;28;20039;-70
2021/07/26 04:35:00;;;;;;;15.98;7.43;;;;;;;25.66;59.91;100272.44;5048103;28;20052;-71
2021/07/26 04:37:44;;;;;;;19.65;6.75;;;;;;;25.85;59.01;100296.75;5050923;28;20052;-71
2021/07/26 04:40:29;;;;;;;20.42;7.38;;;;;;;26.22;58.18;100315.88;5047101;28;20048;-70
2021/07/26 04:43:14;;;;;;;20.00;7.57;;;;;;;26.39;57.55;100325.84;5049654;28;20052;-70
2021/07/26 04:45:59;;;;;;;13.60;7.60;;;;;;;25.77;60.11;100337.09;5052971;28;20116;-71
2021/07/26 04:48:44;;;;;;;17.25;7.80;;;;;;;26.20;58.69;100351.75;5045890;28;20048;-70
2021/07/26 04:51:29;;;;;;;15.18;6.97;;;;;;;26.59;57.39;100378.81;5053094;28;20044;-71
2021/07/26 04:54:13;;;;;;;16.42;8.75;;;;;;;26.52;57.71;100392.09;5056619;28;20059;-69
2021/07/26 04:56:58;;;;;;;11.35;6.82;;;;;;;26.08;58.14;100382.25;5046448;28;20052;-69
2021/07/26 04:59:48;;;;;;;13.27;6.35;;;;;;;25.84;57.37;100384.31;5051116;28;20406;-69
2021/07/26 05:03:08;;;;;;;9.38;4.82;;;;;;;24.75;56.37;100367.41;5054218;28;20044;-69
2021/07/26 05:05:53;;;;;;;17.95;5.18;;;;;;;25.18;56.00;100360.03;5052402;28;20068;-70
2021/07/26 05:08:38;;;;;;;20.08;5.15;;;;;;;25.45;55.18;100383.00;5055805;28;20487;-70
2021/07/26 05:11:24;;;;;;;12.68;4.20;;;;;;;25.58;54.72;100399.13;5051847;28;20067;-70
2021/07/26 05:14:08;;;;;;;5.47;3.28;;;;;;;25.71;54.56;100408.44;5054099;28;20056;-70
2021/07/26 05:16:54;;;;;;;9.43;3.75;;;;;;;25.78;54.03;100413.88;5049256;28;20506;-70
2021/07/26 05:19:39;;;;;;;9.93;3.13;;;;;;;25.84;53.29;100434.47;5037045;28;20056;-70
2021/07/26 05:22:23;;;;;;;6.28;2.42;;;;;;;25.81;53.07;100438.88;5035286;28;20398;-70
2021/07/26 05:25:09;;;;;;;8.82;2.70;;;;;;;25.87;52.77;100439.19;5052282;28;20040;-70
2021/07/26 05:27:54;;;;;;;5.30;1.60;;;;;;;25.87;52.05;100444.75;5056441;28;20406;-70
2021/07/26 05:30:39;;;;;;;7.82;1.63;;;;;;;25.89;51.65;100442.34;5054844;28;20051;-70
2021/07/26 05:33:23;;;;;;;5.85;1.40;;;;;;;25.88;51.50;100432.41;5050021;28;20053;-70
2021/07/26 05:36:08;;;;;;;;;;;;;;;25.89;51.10;100425.63;5045786;28;20052;-70
2021/07/26 05:38:53;;;;;;;2.47;1.13;;;;;;;25.85;50.90;100427.69;5055507;28;19912;-70
2021/07/26 05:41:38;;;;;;;6.47;1.55;;;;;;;25.83;50.83;100430.91;5053149;28;20422;-70
2021/07/26 05:44:23;;;;;;;4.45;1.45;;;;;;;25.83;50.50;100432.91;5050774;28;20425;-70
2021/07/26 05:47:09;;;;;;;2.90;1.40;;;;;;;25.84;50.28;100434.47;5036733;28;20121;-70
2021/07/26 05:49:54;;;;;;;3.38;1.42;;;;;;;25.84;50.24;100428.91;5032673;28;20056;-70
2021/07/26 05:52:39;;;;;;;10.20;1.80;;;;;;;25.83;50.28;100424.53;5046421;28;20051;-70
2021/07/26 05:55:23;;;;;;;;;;;;;;;25.82;50.17;100420.97;5032496;28;20045;-70
2021/07/26 05:58:08;;;;;;;9.43;1.60;;;;;;;25.82;50.20;100418.19;5037923;28;20285;-70
2021/07/26 06:03:56;;;;;;;9.30;1.75;;;;;;;25.83;49.28;100428.13;5054336;28;20040;-70
2021/07/26 06:06:47;;;;;;;19.27;2.47;;;;;;;25.84;48.88;100414.97;5052043;28;20048;-69
2021/07/26 06:09:32;;;;;;;11.32;2.22;;;;;;;25.71;49.48;100419.56;5056599;28;20051;-69
2021/07/26 06:12:16;;;;;;;;;;;;;;;25.71;50.20;100414.78;5054739;28;20056;-68
2021/07/26 06:15:01;;;;;;;5.37;1.70;;;;;;;25.66;50.23;100412.50;5051466;28;20312;-68
2021/07/26 06:17:47;;;;;;;8.45;1.63;;;;;;;25.70;50.51;100418.03;5055392;28;20051;-68
2021/07/26 06:20:32;;;;;;;4.63;2.00;;;;;;;25.64;50.70;100420.50;5054270;28;20521;-68
2021/07/26 06:23:17;;;;;;;10.45;1.80;;;;;;;25.63;50.89;100416.16;5052730;28;20048;-68
2021/07/26 06:26:06;;;;;;;3.90;1.85;;;;;;;25.58;50.94;100415.84;5053561;28;20048;-68
2021/07/26 06:28:52;;;;;;;3.70;1.98;;;;;;;25.64;50.96;100426.09;5054430;28;20051;-68
2021/07/26 06:31:38;;;;;;;4.38;1.95;;;;;;;25.73;50.62;100428.31;5058254;28;20048;-69
2021/07/26 06:34:22;;;;;;;7.30;1.92;;;;;;;25.79;50.52;100421.03;5057909;28;20410;-69
2021/07/26 06:37:07;;;;;;;5.30;1.95;;;;;;;25.84;50.47;100417.75;5051218;28;20098;-69
2021/07/26 06:39:52;;;;;;;10.40;2.28;;;;;;;26.51;47.09;100416.44;5045798;28;20063;-70
2021/07/26 06:42:37;;;;;;;6.78;2.05;;;;;;;27.15;45.37;100417.81;5055928;28;20087;-69
2021/07/26 06:45:22;;;;;;;8.63;2.30;;;;;;;27.73;43.76;100423.56;5042767;28;20521;-69
2021/07/26 06:48:07;;;;;;;7.80;1.75;;;;;;;28.33;42.41;100422.72;5052413;28;20414;-69
2021/07/26 06:50:52;;;;;;;10.75;2.22;;;;;;;28.43;42.08;100418.03;5050640;28;20410;-70
2021/07/26 06:53:37;;;;;;;3.95;2.70;;;;;;;28.48;42.22;100425.88;5055175;28;20044;-70
2021/07/26 06:56:22;;;;;;;9.52;2.10;;;;;;;28.71;41.32;100422.75;5052299;28;20052;-70
2021/07/26 06:59:07;;;;;;;4.13;2.13;;;;;;;29.32;40.48;100416.06;5041793;28;20059;-70
2021/07/26 07:01:52;;;;;;;7.93;3.22;;;;;;;30.01;38.63;100416.91;5035351;28;20064;-70
2021/07/26 07:04:36;;;;;;;6.90;2.65;;;;;;;30.59;36.94;100421.97;5035164;28;20045;-70
2021/07/26 07:07:22;;;;;;;6.72;1.90;;;;;;;31.13;35.76;100427.09;5057165;28;20056;-70
2021/07/26 07:10:07;;;;;;;6.95;2.00;;;;;;;31.52;35.48;100427.50;5054646;28;20048;-70
2021/07/26 07:12:52;;;;;;;8.85;2.13;;;;;;;31.97;34.56;100433.19;5041808;28;20043;-70
2021/07/26 07:15:36;;;;;;;5.53;2.00;;;;;;;32.10;34.21;100439.41;5035492;28;20048;-70
2021/07/26 07:18:21;;;;;;;6.43;1.83;;;;;;;31.60;35.50;100446.44;5046831;28;20048;-70
2021/07/26 07:21:06;;;;;;;5.38;1.95;;;;;;;31.06;36.04;100443.44;5039481;28;20044;-70
2021/07/26 07:23:52;;;;;;;8.77;2.00;;;;;;;30.86;36.65;100453.03;5044603;28;20406;-70
2021/07/26 07:26:37;;;;;;;2.40;1.83;;;;;;;30.70;36.99;100455.25;5037912;28;20048;-70
2021/07/26 07:29:22;;;;;;;11.35;2.30;;;;;;;30.30;37.81;100446.72;5042086;28;20060;-70
2021/07/26 07:32:11;;;;;;;7.55;2.08;;;;;;;30.01;38.58;100447.75;5035865;28;20064;-70
2021/07/26 07:34:56;;;;;;;3.42;2.30;;;;;;;30.22;38.08;100453.84;5045271;28;20060;-70
2021/07/26 07:37:41;;;;;;;4.82;2.20;;;;;;;30.15;38.24;100455.66;5042622;28;20044;-70
2021/07/26 07:40:26;;;;;;;7.15;2.70;;;;;;;30.05;38.15;100453.25;5040536;28;20052;-70
2021/07/26 07:43:11;;;;;;;4.57;2.70;;;;;;;30.31;38.50;100449.09;5055995;28;20434;-70
2021/07/26 07:45:56;;;;;;;5.55;2.65;;;;;;;30.30;38.11;100453.13;5055677;28;20063;-69
2021/07/26 07:48:42;;;;;;;6.40;2.50;;;;;;;30.22;38.37;100451.03;5055714;28;20512;-70
2021/07/26 07:51:26;;;;;;;5.95;2.70;;;;;;;30.10;38.81;100464.66;5059389;28;20517;-70
2021/07/26 07:54:12;;;;;;;5.97;2.22;;;;;;;30.04;38.03;100472.09;5054474;28;20052;-70
2021/07/26 07:56:58;;;;;;;5.18;2.55;;;;;;;30.18;37.70;100467.97;5055378;28;20048;-70
2021/07/26 07:59:45;;;;;;;5.78;2.50;;;;;;;30.23;37.67;100466.63;5059363;28;20048;-70
2021/07/26 08:02:30;;;;;;;14.68;2.35;;;;;;;30.34;37.79;100464.22;5057866;28;20048;-70
2021/07/26 08:05:17;;;;;;;8.82;2.35;;;;;;;30.34;38.01;100473.41;5055235;28;20414;-70
2021/07/26 08:08:01;;;;;;;7.82;2.40;;;;;;;29.93;38.74;100480.09;5059606;28;20052;-70
2021/07/26 08:10:47;;;;;;;12.27;2.85;;;;;;;29.99;39.21;100483.09;5056410;28;20414;-70
2021/07/26 08:13:37;;;;;;;8.60;2.75;;;;;;;30.09;39.01;100491.13;5055628;28;20063;-72
2021/07/26 08:16:23;;;;;;;8.80;2.75;;;;;;;29.65;41.09;100479.03;5035266;28;20525;-71
2021/07/26 08:19:08;;;;;;;70.88;6.05;;;;;;;29.95;41.40;100479.66;5034172;28;20049;-70
2021/07/26 08:21:53;;;;;;;7.28;2.38;;;;;;;29.14;43.28;100474.66;5035285;28;20059;-70
2021/07/26 08:24:39;;;;;;;7.95;2.85;;;;;;;29.65;41.84;100479.03;5040201;28;20052;-70
2021/07/26 08:27:25;;;;;;;6.57;2.38;;;;;;;29.05;42.92;100474.56;5060655;28;20040;-70
2021/07/26 08:30:10;;;;;;;5.68;2.17;;;;;;;29.12;43.20;100471.53;5055461;28;20048;-71
2021/07/26 08:32:55;;;;;;;6.28;2.40;;;;;;;29.01;43.29;100477.47;5059123;28;20048;-71
2021/07/26 08:35:40;;;;;;;7.80;2.88;;;;;;;28.82;43.50;100475.66;5056602;28;20048;-71
2021/07/26 08:38:24;;;;;;;5.50;1.90;;;;;;;28.61;44.50;100477.03;5053199;28;20047;-71
2021/07/26 08:41:09;;;;;;;4.10;2.08;;;;;;;28.50;44.18;100482.16;5048916;28;20052;-71
2021/07/26 08:43:54;;;;;;;3.63;2.22;;;;;;;28.41;44.59;100488.41;5036230;28;20040;-71
2021/07/26 08:46:43;;;;;;;9.68;2.33;;;;;;;28.44;44.79;100483.94;5033739;28;20708;-71
2021/07/26 08:49:28;;;;;;;4.20;2.50;;;;;;;28.39;43.14;100473.31;5025051;28;20041;-71
2021/07/26 08:52:18;;;;;;;7.03;2.78;;;;;;;28.47;41.46;100471.84;5047023;28;20052;-71
2021/07/26 08:55:03;;;;;;;3.67;2.58;;;;;;;28.60;43.30;100472.66;5053699;28;20048;-72
2021/07/26 08:57:50;;;;;;;6.13;3.22;;;;;;;28.44;42.92;100469.97;5057860;28;20047;-72
2021/07/26 09:00:35;;;;;;;6.32;3.20;;;;;;;28.58;42.89;100477.16;5049520;28;20049;-72
2021/07/26 09:03:19;;;;;;;5.68;2.95;;;;;;;28.50;43.40;100476.56;5039095;28;20060;-72
2021/07/26 09:06:04;;;;;;;8.25;2.80;;;;;;;28.59;42.67;100473.91;5043916;28;20509;-72
2021/07/26 09:08:49;;;;;;;13.18;3.13;;;;;;;28.64;43.39;100466.97;5038424;28;20060;-72
2021/07/26 09:11:45;;;;;;;6.00;2.53;;;;;;;28.54;43.69;100468.06;5022460;28;20411;-72
2021/07/26 09:14:38;;;;;;;8.00;2.97;;;;;;;28.39;44.03;100482.44;5036028;28;20044;-72
2021/07/26 09:17:23;;;;;;;7.32;2.88;;;;;;;28.36;44.14;100479.75;5042884;28;20524;-72
2021/07/26 09:20:09;;;;;;;7.13;3.63;;;;;;;28.34;44.53;100482.25;5054276;28;20414;-72
2021/07/26 09:22:56;;;;;;;5.75;2.72;;;;;;;28.36;44.30;100488.16;5055310;28;20328;-72
2021/07/26 09:25:42;;;;;;;7.60;3.92;;;;;;;28.62;44.05;100478.63;5052919;28;20048;-73
2021/07/26 09:28:33;;;;;;;9.18;3.65;;;;;;;28.57;43.98;100470.75;5055351;28;20055;-72
2021/07/26 09:31:18;;;;;;;4.28;2.92;;;;;;;28.70;43.82;100477.16;5054498;28;20039;-72
2021/07/26 09:34:21;;;;;;;5.95;3.13;;;;;;;28.63;43.97;100480.19;5051161;28;20052;-72
2021/07/26 09:37:24;;;;;;;7.00;3.25;;;;;;;28.59;44.30;100482.31;5053623;28;20044;-72
2021/07/26 09:40:22;;;;;;;5.25;2.95;;;;;;;28.54;44.69;100485.66;5053707;28;20043;-71
2021/07/26 09:43:20;;;;;;;12.93;3.60;;;;;;;28.43;45.39;100487.97;5056998;28;20063;-72
2021/07/26 09:46:05;;;;;;;7.70;4.35;;;;;;;28.65;44.21;100490.94;5053449;28;20036;-72
2021/07/26 09:49:07;;;;;;;11.68;4.10;;;;;;;28.82;44.29;100493.22;5050306;28;20414;-72
2021/07/26 09:52:10;;;;;;;5.65;3.53;;;;;;;28.84;44.54;100501.97;5054107;28;20394;-72
2021/07/26 09:54:55;;;;;;;9.40;4.20;;;;;;;29.02;43.83;100492.25;5051503;28;20048;-72
2021/07/26 09:57:43;;;;;;;8.93;4.05;;;;;;;29.06;43.69;100476.91;5056178;28;20107;-72
2021/07/26 10:00:29;;;;;;;6.20;3.72;;;;;;;29.01;43.81;100473.88;5052693;28;20047;-72
2021/07/26 10:03:15;;;;;;;7.00;3.97;;;;;;;29.03;43.66;100475.00;5051141;28;20044;-72
2021/07/26 10:06:00;;;;;;;7.57;3.90;;;;;;;29.06;43.63;100478.91;5051511;28;20052;-72
2021/07/26 10:08:47;;;;;;;9.45;4.50;;;;;;;29.22;43.85;100482.41;5051417;28;20048;-72
2021/07/26 10:11:32;;;;;;;10.32;5.30;;;;;;;29.19;43.53;100474.91;5050973;28;20501;-72
2021/07/26 10:14:17;;;;;;;9.20;4.90;;;;;;;29.24;44.52;100477.13;5052667;28;20048;-72
2021/07/26 10:17:02;;;;;;;7.43;4.10;;;;;;;29.19;44.12;100483.31;5051904;28;20414;-72
2021/07/26 10:19:47;;;;;;;12.00;4.45;;;;;;;29.08;44.38;100490.47;5049930;28;20043;-73
2021/07/26 10:22:33;;;;;;;21.27;4.78;;;;;;;28.90;44.78;100483.38;5051894;28;20509;-72
2021/07/26 10:25:28;;;;;;;6.25;4.13;;;;;;;28.89;44.64;100478.25;5046857;28;20044;-72
2021/07/26 10:28:54;;;;;;;9.82;4.05;;;;;;;28.90;45.05;100483.38;5048685;28;20048;-73
2021/07/26 10:31:39;;;;;;;8.27;4.40;;;;;;;28.90;45.47;100494.56;5049202;28;20079;-72
2021/07/26 10:34:33;;;;;;;7.40;4.72;;;;;;;29.53;43.67;100493.03;5051307;28;20095;-73
2021/07/26 10:37:45;;;;;;;5.85;4.28;;;;;;;29.65;43.13;100495.06;5049079;28;20461;-73
2021/07/26 10:40:31;;;;;;;9.43;4.75;;;;;;;29.50;43.56;100491.94;5050162;28;20414;-73
2021/07/26 10:43:59;;;;;;;12.02;4.82;;;;;;;29.84;43.18;100487.59;5045936;28;20047;-72
2021/07/26 10:46:53;;;;;;;6.45;4.22;;;;;;;29.92;42.88;100491.78;5032633;28;20147;-73
2021/07/26 10:49:43;;;;;;;8.73;5.10;;;;;;;29.85;43.76;100500.41;5056111;28;20044;-73
2021/07/26 10:52:28;;;;;;;11.63;5.60;;;;;;;30.09;42.67;100495.97;5050052;28;20267;-73
2021/07/26 10:55:52;;;;;;;12.95;5.78;;;;;;;30.38;42.05;100488.09;5051515;28;20040;-72
2021/07/26 10:58:40;;;;;;;10.73;5.63;;;;;;;30.19;41.98;100483.59;5053666;28;20044;-73
2021/07/26 11:01:27;;;;;;;17.90;5.80;;;;;;;30.35;41.92;100488.22;5052616;28;20048;-73
2021/07/26 11:04:31;;;;;;;11.02;5.45;;;;;;;30.54;40.25;100487.94;5056539;28;20480;-73
2021/07/26 11:07:26;;;;;;;9.95;5.43;;;;;;;30.64;40.54;100485.97;5052481;28;20052;-73
2021/07/26 11:10:47;;;;;;;10.05;5.35;;;;;;;30.55;40.49;100478.28;5049464;28;20074;-73
2021/07/26 11:13:52;;;;;;;17.63;6.20;;;;;;;30.12;41.87;100464.97;5050898;28;20044;-73
2021/07/26 11:16:49;;;;;;;16.83;4.80;;;;;;;30.30;41.32;100460.75;5046547;28;20068;-73
2021/07/26 11:19:34;;;;;;;10.70;5.75;;;;;;;30.38;40.87;100464.84;5053081;28;20043;-73
2021/07/26 11:22:21;;;;;;;11.45;5.20;;;;;;;30.45;41.16;100456.19;5061304;28;20106;-73
2021/07/26 11:25:06;;;;;;;10.00;5.32;;;;;;;30.01;42.81;100458.19;5056812;28;20056;-72
2021/07/26 11:27:53;;;;;;;10.75;5.25;;;;;;;30.29;41.02;100448.75;5056113;28;20040;-73
2021/07/26 11:30:39;;;;;;;19.20;6.43;;;;;;;30.71;41.11;100446.38;5054376;28;20068;-73
2021/07/26 11:33:24;;;;;;;17.10;6.15;;;;;;;30.93;39.51;100447.09;5058640;28;20056;-73
2021/07/26 11:36:09;;;;;;;10.38;5.43;;;;;;;30.96;39.83;100445.41;5055589;28;20232;-72
2021/07/26 11:38:59;;;;;;;13.48;4.93;;;;;;;31.18;39.58;100443.34;5055620;28;20414;-73
2021/07/26 11:41:50;;;;;;;14.43;5.75;;;;;;;30.94;39.81;100453.50;5058509;28;20600;-72
2021/07/26 11:44:35;;;;;;;9.68;4.95;;;;;;;30.96;40.54;100446.19;5057179;28;20509;-73
2021/07/26 11:47:37;;;;;;;8.70;5.00;;;;;;;30.78;40.49;100456.56;5055129;28;20055;-72
2021/07/26 11:50:38;;;;;;;12.07;5.43;;;;;;;31.11;40.05;100466.09;5056503;28;20032;-73
2021/07/26 11:53:27;;;;;;;11.13;5.63;;;;;;;31.29;38.77;100468.97;5055482;28;20048;-73
2021/07/26 11:56:19;;;;;;;12.68;5.28;;;;;;;31.23;39.79;100465.22;5055064;28;20516;-72
2021/07/26 11:59:22;;;;;;;15.38;5.32;;;;;;;31.50;38.80;100460.91;5038337;28;20048;-73
2021/07/26 12:02:14;;;;;;;14.25;5.65;;;;;;;31.31;39.46;100458.06;5053268;28;20389;-73
2021/07/26 12:05:12;;;;;;;8.75;5.35;;;;;;;31.09;39.80;100460.16;5052009;28;20048;-73
2021/07/26 12:08:00;;;;;;;18.20;5.00;;;;;;;31.43;40.81;100451.53;5054856;28;20040;-73
2021/07/26 12:10:47;;;;;;;9.57;5.05;;;;;;;31.70;38.46;100450.03;5057037;28;20048;-73
2021/07/26 12:13:39;;;;;;;11.05;5.32;;;;;;;31.61;39.03;100450.03;5056167;28;20044;-73
2021/07/26 12:16:23;;;;;;;13.57;6.72;;;;;;;31.47;39.46;100450.59;5050930;28;20048;-73
2021/07/26 12:19:17;;;;;;;13.93;5.57;;;;;;;31.43;39.25;100450.75;5059011;28;20044;-73
2021/07/26 12:22:16;;;;;;;10.52;5.93;;;;;;;30.98;40.46;100442.94;5056249;28;20414;-73
2021/07/26 12:25:01;;;;;;;17.33;5.68;;;;;;;31.25;39.55;100431.03;5053414;28;20056;-73
2021/07/26 12:28:02;;;;;;;9.93;5.60;;;;;;;30.78;40.63;100429.25;5042900;28;20406;-72
2021/07/26 12:30:53;;;;;;;11.13;5.55;;;;;;;30.97;40.54;100427.31;5036186;28;20040;-73
2021/07/26 12:33:38;;;;;;;9.60;5.50;;;;;;;31.05;40.57;100425.81;5052254;28;20044;-72
2021/07/26 12:36:33;;;;;;;11.73;6.22;;;;;;;30.86;41.10;100429.78;5052785;28;20414;-73
2021/07/26 12:39:19;;;;;;;19.92;5.57;;;;;;;31.10;41.04;100424.41;5039181;28;20048;-73
2021/07/26 12:42:21;;;;;;;19.17;5.57;;;;;;;30.98;40.85;100424.03;5050853;28;20116;-73
2021/07/26 12:45:24;;;;;;;10.27;5.65;;;;;;;31.18;40.37;100415.25;5055801;28;20649;-73
2021/07/26 12:48:18;;;;;;;9.93;5.72;;;;;;;30.79;41.20;100408.34;5053012;28;20420;-73
2021/07/26 12:51:08;;;;;;;12.50;6.80;;;;;;;30.17;42.85;100387.88;5037461;28;20044;-72
2021/07/26 12:53:53;;;;;;;17.52;6.18;;;;;;;30.77;41.26;100385.59;5034561;28;20410;-73
2021/07/26 12:56:38;;;;;;;15.25;5.55;;;;;;;30.79;41.08;100376.69;5033710;28;20056;-73
2021/07/26 12:59:23;;;;;;;15.57;5.57;;;;;;;30.99;40.58;100374.25;5034598;28;20068;-73